Luke Air Force Base Glendale US
ICAO: KLUF
IATA: LUF
Category: Large
Scheduled Services: No

Elevation: 1085 ft
TransAlt. 18000 ft.

Airport Communications:
APP/DEP:120.7
ATIS:134.925
CLNC DEL:126.25
GND:133.175
PMSV METRO:26.74
COMD POST:34.94
PTD:37.22
TWR:119.1

KLUF Zoom In..

Runways:

(A) RW 03L length 10012 ft width 150 ft
---- / hdg 30

(B) RW 03R length 9904 ft width 150 ft
ILS 108.70 / hdg 30

(C) RW 21L length 9904 ft width 150 ft
ILS 110.90 / hdg 210

(D) RW 21R length 10012 ft width 150 ft
---- / hdg 210

Location; KLUF
Day. 04 / Time. 13.58 Zulu
* Altimeter: 29.81
* Temperature: 12° c. 53.6°f.
* Wind from: 010° Speed 03 kn.
Dewpoint: 05° c.
Visibility: 8 Statute Miles.
Clouds: Clear (automated report).

KLUF 041358Z AUTO 01003KT 8SM CLR 12/05 A2981 RMK AO2 SLP088 T01180052


Wind From 010°
Speed 03 kn.

 
 
jpsmedia worldairports.se 2020   terms of use